Time;durP1;ratioP1;P1;durP2;ratioP2;P2;SDS_P1;SDS_P2;PMS_P1;PMS_P2;Temp;Humidity;BMP_temperature;BMP_pressure;BME280_temperature;BME280_humidity;BME280_pressure;Samples;Min_cycle;Max_cycle;Signal;HPM_P1;HPM_P2
2022/09/24 00:00:56;;;;;;;51.90;38.95;;;13.60;99.90;;;;;;5073715;28;20439;-59
2022/09/24 00:03:24;;;;;;;50.70;37.33;;;13.50;99.90;;;;;;5073524;28;20041;-58
2022/09/24 00:05:51;;;;;;;56.83;39.25;;;13.20;99.90;;;;;;5073528;28;20080;-59
2022/09/24 00:08:19;;;;;;;55.35;39.30;;;13.80;99.90;;;;;;5072104;28;20078;-59
2022/09/24 00:10:47;;;;;;;56.35;40.22;;;13.50;99.90;;;;;;5073471;28;20037;-58
2022/09/24 00:13:16;;;;;;;54.72;39.50;;;13.80;99.90;;;;;;5073608;28;20036;-59
2022/09/24 00:15:45;;;;;;;59.05;39.63;;;13.10;99.90;;;;;;5073088;28;20055;-59
2022/09/24 00:18:13;;;;;;;55.55;38.97;;;13.60;99.90;;;;;;5073024;28;20488;-59
2022/09/24 00:20:40;;;;;;;55.33;40.55;;;13.20;99.90;;;;;;5073419;28;20504;-59
2022/09/24 00:23:07;;;;;;;57.83;39.72;;;13.80;99.90;;;;;;5073212;28;20048;-59
2022/09/24 00:28:24;;;;;;;52.63;38.30;;;13.80;99.90;;;;;;5073432;28;20109;-59
2022/09/24 00:30:51;;;;;;;54.88;39.45;;;13.30;99.90;;;;;;5073025;28;20451;-59
2022/09/24 00:33:20;;;;;;;61.47;40.05;;;;;;;;;;5072189;28;20041;-59
2022/09/24 00:35:46;;;;;;;54.85;39.25;;;13.60;99.90;;;;;;5073287;28;20117;-59
2022/09/24 00:38:13;;;;;;;58.65;39.95;;;;;;;;;;5073000;28;20044;-59
2022/09/24 00:40:38;;;;;;;60.25;39.70;;;13.40;99.90;;;;;;5072958;28;20493;-59
2022/09/24 00:43:26;;;;;;;59.50;41.55;;;13.30;99.90;;;;;;5072960;28;20044;-59
2022/09/24 00:45:57;;;;;;;63.83;41.92;;;13.30;99.90;;;;;;5072720;28;20032;-59
2022/09/24 00:48:24;;;;;;;54.00;38.88;;;13.60;99.90;;;;;;5072427;28;20123;-59
2022/09/24 00:50:50;;;;;;;60.08;42.22;;;13.40;99.90;;;;;;5073084;28;20033;-59
2022/09/24 00:53:22;;;;;;;56.53;39.75;;;13.80;99.90;;;;;;5071733;28;20040;-59
2022/09/24 00:55:53;;;;;;;54.42;40.45;;;13.50;99.90;;;;;;5073006;28;20048;-59
2022/09/24 00:58:22;;;;;;;58.15;40.80;;;13.40;99.90;;;;;;5073682;28;20128;-59
2022/09/24 01:00:51;;;;;;;59.67;41.13;;;13.60;99.90;;;;;;5072944;28;20039;-59
2022/09/24 01:03:24;;;;;;;61.22;42.83;;;13.50;99.90;;;;;;5072638;28;20044;-59
2022/09/24 01:05:51;;;;;;;60.30;41.65;;;13.40;99.90;;;;;;5072806;28;20048;-59
2022/09/24 01:08:19;;;;;;;62.25;43.22;;;13.60;99.90;;;;;;5071643;28;20048;-59
2022/09/24 01:10:50;;;;;;;63.80;43.17;;;;;;;;;;5072946;28;20037;-59
2022/09/24 01:13:25;;;;;;;64.32;42.58;;;13.70;99.90;;;;;;5072841;28;20082;-59
2022/09/24 01:16:07;;;;;;;57.97;41.65;;;13.20;99.90;;;;;;5072527;28;20476;-59
2022/09/24 01:19:00;;;;;;;66.10;42.53;;;13.90;99.90;;;;;;5072535;28;20052;-59
2022/09/24 01:21:30;;;;;;;68.38;43.20;;;13.30;99.90;;;;;;5072540;28;20036;-59
2022/09/24 01:24:29;;;;;;;57.08;41.08;;;13.50;99.90;;;;;;5072705;28;20119;-59
2022/09/24 01:27:41;;;;;;;64.65;43.42;;;14.00;99.90;;;;;;5071387;28;20043;-59
2022/09/24 01:30:12;;;;;;;65.75;42.13;;;13.30;99.90;;;;;;5073455;28;20036;-59
2022/09/24 01:32:48;;;;;;;64.63;42.40;;;13.50;99.90;;;;;;5075280;28;20044;-59
2022/09/24 01:35:33;;;;;;;61.28;42.13;;;13.90;99.90;;;;;;5076608;28;20051;-59
2022/09/24 01:38:22;;;;;;;59.40;40.83;;;13.80;99.90;;;;;;5076443;28;20052;-59
2022/09/24 01:40:50;;;;;;;62.15;41.47;;;13.50;99.90;;;;;;5076470;28;20047;-59
2022/09/24 01:43:18;;;;;;;62.25;43.05;;;13.50;99.90;;;;;;5076414;28;20095;-59
2022/09/24 01:45:45;;;;;;;64.45;42.72;;;13.50;99.90;;;;;;5075844;28;20040;-59
2022/09/24 01:48:11;;;;;;;58.13;41.38;;;13.50;99.90;;;;;;5076195;28;20036;-59
2022/09/24 01:50:45;;;;;;;62.50;41.85;;;13.70;99.90;;;;;;5076469;28;20036;-60
2022/09/24 01:53:21;;;;;;;57.92;41.47;;;13.40;99.90;;;;;;5076259;28;20040;-59
2022/09/24 01:55:53;;;;;;;63.45;43.03;;;13.60;99.90;;;;;;5075853;28;20043;-59
2022/09/24 01:58:58;;;;;;;69.10;43.70;;;13.30;99.90;;;;;;5075541;28;20099;-59
2022/09/24 02:01:34;;;;;;;62.42;41.67;;;13.70;99.90;;;;;;5075883;28;20040;-59
2022/09/24 02:04:04;;;;;;;;;;;13.50;99.90;;;;;;5076195;28;20041;-59
2022/09/24 02:06:35;;;;;;;61.00;42.38;;;13.30;99.90;;;;;;5075640;28;20392;-59
2022/09/24 02:09:01;;;;;;;62.80;42.15;;;13.40;99.90;;;;;;5075610;28;20047;-59
2022/09/24 02:11:28;;;;;;;63.90;42.35;;;;;;;;;;5075806;28;20452;-59
2022/09/24 02:14:07;;;;;;;61.72;42.55;;;13.40;99.90;;;;;;5075766;28;20487;-58
2022/09/24 02:16:57;;;;;;;62.47;42.25;;;13.00;99.90;;;;;;5075436;28;20049;-58
2022/09/24 02:19:27;;;;;;;60.88;41.20;;;13.40;99.90;;;;;;5074721;28;20086;-59
2022/09/24 02:21:55;;;;;;;72.10;44.28;;;13.80;99.90;;;;;;5075599;28;20438;-59
2022/09/24 02:24:44;;;;;;;61.38;42.13;;;13.40;99.90;;;;;;5075434;28;20124;-59
2022/09/24 02:27:10;;;;;;;61.97;42.67;;;13.30;99.90;;;;;;5075669;28;20080;-59
2022/09/24 02:29:36;;;;;;;64.38;42.72;;;13.40;99.90;;;;;;5075494;28;20050;-59
2022/09/24 02:32:03;;;;;;;59.17;41.15;;;13.20;99.90;;;;;;5075229;28;20119;-59
2022/09/24 02:34:38;;;;;;;68.70;44.20;;;13.40;99.90;;;;;;5073918;28;20044;-59
2022/09/24 02:37:10;;;;;;;63.93;42.33;;;13.40;99.90;;;;;;5075238;28;20041;-59
2022/09/24 02:39:36;;;;;;;69.25;44.63;;;13.30;99.90;;;;;;5075213;28;20688;-59
2022/09/24 02:42:04;;;;;;;63.80;43.90;;;13.50;99.90;;;;;;5073681;28;20072;-59
2022/09/24 02:44:31;;;;;;;62.95;42.80;;;13.40;99.90;;;;;;5075264;28;20469;-59
2022/09/24 02:47:01;;;;;;;64.40;43.63;;;12.90;99.90;;;;;;5075096;28;20427;-59
2022/09/24 02:49:27;;;;;;;67.10;45.63;;;13.00;99.90;;;;;;5074834;28;20047;-59
2022/09/24 02:51:54;;;;;;;66.38;44.70;;;13.30;99.90;;;;;;5074869;28;20044;-59
2022/09/24 02:54:21;;;;;;;66.90;44.55;;;13.30;99.90;;;;;;5074563;28;20048;-59
2022/09/24 02:56:47;;;;;;;69.85;46.08;;;13.70;99.90;;;;;;5073475;28;20048;-59
2022/09/24 02:59:13;;;;;;;74.13;47.08;;;13.10;99.90;;;;;;5074897;28;20119;-59
2022/09/24 03:01:39;;;;;;;65.45;45.60;;;13.10;99.90;;;;;;5074796;28;20040;-59
2022/09/24 03:04:05;;;;;;;72.57;46.88;;;13.60;99.90;;;;;;5074689;28;20036;-59
2022/09/24 03:06:31;;;;;;;82.45;48.88;;;13.50;99.90;;;;;;5074637;28;20040;-58
2022/09/24 03:09:02;;;;;;;67.35;47.10;;;12.90;99.90;;;;;;5074255;28;20037;-59
2022/09/24 03:11:30;;;;;;;75.13;49.28;;;13.80;99.90;;;;;;5074484;28;20051;-59
2022/09/24 03:13:57;;;;;;;77.35;48.28;;;13.00;99.90;;;;;;5057237;28;20044;-59
2022/09/24 03:16:23;;;;;;;73.03;47.88;;;;;;;;;;5074554;28;20052;-59
2022/09/24 03:18:49;;;;;;;75.65;47.40;;;13.50;99.90;;;;;;5074379;28;20072;-59
2022/09/24 03:21:17;;;;;;;73.88;48.55;;;13.50;99.90;;;;;;5074186;28;20071;-59
2022/09/24 03:23:43;;;;;;;85.03;50.67;;;13.20;99.90;;;;;;5074101;28;20040;-59
2022/09/24 03:26:10;;;;;;;76.63;50.35;;;;;;;;;;5073955;28;20503;-59
2022/09/24 03:28:36;;;;;;;77.30;48.00;;;13.30;99.90;;;;;;5074234;28;20043;-59
2022/09/24 03:31:02;;;;;;;81.20;48.90;;;13.20;99.90;;;;;;5073186;28;20071;-59
2022/09/24 03:33:40;;;;;;;79.57;50.03;;;13.10;99.90;;;;;;5074226;28;20068;-59
2022/09/24 03:36:10;;;;;;;78.50;49.15;;;13.30;99.90;;;;;;5073895;28;20044;-59
2022/09/24 03:38:37;;;;;;;76.25;48.92;;;13.10;99.90;;;;;;5073880;28;20044;-59
2022/09/24 03:41:04;;;;;;;75.05;49.17;;;13.40;99.90;;;;;;5073860;28;20040;-59
2022/09/24 03:43:35;;;;;;;80.43;51.72;;;13.30;99.90;;;;;;5074094;28;20048;-59
2022/09/24 03:46:05;;;;;;;77.00;49.30;;;13.30;99.90;;;;;;5073863;28;20079;-59
2022/09/24 03:48:37;;;;;;;85.68;49.97;;;13.30;99.90;;;;;;5073961;28;20040;-59
2022/09/24 03:51:04;;;;;;;77.25;49.55;;;13.40;99.90;;;;;;5073946;28;20457;-59
2022/09/24 03:53:31;;;;;;;79.05;50.72;;;13.70;99.90;;;;;;5073249;28;20044;-59
2022/09/24 03:55:57;;;;;;;76.15;48.75;;;13.00;99.90;;;;;;5073551;28;20507;-59
2022/09/24 03:58:25;;;;;;;79.20;49.53;;;13.70;99.90;;;;;;5073767;28;20123;-59
2022/09/24 04:00:52;;;;;;;82.13;49.80;;;13.30;99.90;;;;;;5073440;28;20040;-59
2022/09/24 04:03:22;;;;;;;79.22;48.97;;;13.60;99.90;;;;;;5073613;28;20036;-59
2022/09/24 04:05:50;;;;;;;77.45;49.17;;;13.10;99.90;;;;;;5073490;28;20045;-59
2022/09/24 04:08:18;;;;;;;80.05;49.85;;;13.50;99.90;;;;;;5073723;28;20540;-59
2022/09/24 04:10:47;;;;;;;72.43;47.67;;;13.60;99.90;;;;;;5073626;28;20047;-59
2022/09/24 04:13:14;;;;;;;75.65;48.30;;;13.10;99.90;;;;;;5073380;28;20036;-59
2022/09/24 04:15:40;;;;;;;79.05;49.33;;;13.40;99.90;;;;;;5073204;28;20145;-58
2022/09/24 04:18:07;;;;;;;71.20;46.83;;;13.40;99.90;;;;;;5073536;28;20122;-59
2022/09/24 04:20:36;;;;;;;70.13;46.33;;;13.40;99.90;;;;;;5073192;28;20052;-58
2022/09/24 04:23:05;;;;;;;76.05;48.15;;;;;;;;;;5073433;28;20040;-58
2022/09/24 04:25:32;;;;;;;73.97;46.78;;;13.40;99.90;;;;;;5073355;28;20037;-58
2022/09/24 04:28:03;;;;;;;71.78;46.00;;;13.20;99.90;;;;;;5073178;28;20044;-58
2022/09/24 04:30:31;;;;;;;71.88;47.97;;;13.60;99.90;;;;;;5073325;28;20036;-58
2022/09/24 04:32:59;;;;;;;73.43;46.88;;;13.40;99.90;;;;;;5073262;28;20126;-58
2022/09/24 04:35:26;;;;;;;68.57;45.55;;;;;;;;;;5071932;28;20047;-58
2022/09/24 04:37:52;;;;;;;64.60;44.08;;;;;;;;;;5072778;28;20036;-58
2022/09/24 04:40:17;;;;;;;63.30;43.05;;;13.30;99.90;;;;;;5073024;28;20047;-58
2022/09/24 04:42:45;;;;;;;64.50;42.50;;;13.40;99.90;;;;;;5073329;28;20037;-58
2022/09/24 04:45:16;;;;;;;66.47;43.08;;;13.80;99.90;;;;;;5072890;28;20041;-58
2022/09/24 04:47:42;;;;;;;62.20;43.17;;;;;;;;;;5073162;28;20067;-58
2022/09/24 04:50:10;;;;;;;63.92;43.42;;;13.30;99.90;;;;;;5072873;28;20037;-59
2022/09/24 04:52:36;;;;;;;62.83;43.22;;;13.30;99.90;;;;;;5073147;28;20075;-59
2022/09/24 04:55:03;;;;;;;65.28;41.83;;;13.50;99.90;;;;;;5073241;28;20045;-59
2022/09/24 04:57:35;;;;;;;57.88;40.60;;;13.90;99.90;;;;;;5072715;28;20051;-59
2022/09/24 05:00:06;;;;;;;59.45;40.78;;;13.50;99.90;;;;;;5073004;28;20047;-60
2022/09/24 05:02:32;;;;;;;58.38;41.38;;;13.50;99.90;;;;;;5073126;28;20426;-59
2022/09/24 05:04:57;;;;;;;61.85;41.13;;;12.90;99.90;;;;;;5073337;28;20041;-59
2022/09/24 05:07:24;;;;;;;59.63;40.55;;;13.10;99.90;;;;;;5075888;28;20396;-59
2022/09/24 05:09:49;;;;;;;56.88;39.75;;;13.10;99.90;;;;;;5076966;28;20120;-59
2022/09/24 05:12:15;;;;;;;62.55;40.60;;;13.40;99.90;;;;;;5076955;28;20111;-59
2022/09/24 05:14:41;;;;;;;59.13;39.47;;;13.30;99.90;;;;;;5076659;28;20033;-59
2022/09/24 05:17:07;;;;;;;59.45;40.40;;;13.10;99.90;;;;;;5076374;28;20458;-60
2022/09/24 05:19:33;;;;;;;58.28;38.88;;;;;;;;;;5076583;28;20040;-59
2022/09/24 05:21:58;;;;;;;52.10;37.67;;;13.50;99.90;;;;;;5076500;28;20055;-58
2022/09/24 05:24:24;;;;;;;57.15;40.35;;;13.70;99.90;;;;;;5076158;28;20048;-59
2022/09/24 05:27:09;;;;;;;53.42;37.65;;;;;;;;;;5076495;28;20029;-58
2022/09/24 05:29:42;;;;;;;57.42;38.13;;;13.40;99.90;;;;;;5076768;28;20407;-59
2022/09/24 05:32:16;;;;;;;52.85;36.92;;;13.30;99.90;;;;;;5076698;28;20033;-59
2022/09/24 05:34:43;;;;;;;53.47;37.08;;;13.60;99.90;;;;;;5076449;28;20111;-59
2022/09/24 05:37:10;;;;;;;57.97;37.55;;;13.70;99.90;;;;;;5075922;28;20055;-60
2022/09/24 05:39:37;;;;;;;55.72;38.95;;;;;;;;;;5076506;28;20460;-60
2022/09/24 05:42:03;;;;;;;54.60;37.15;;;13.50;99.90;;;;;;5076116;28;20504;-59
2022/09/24 05:44:30;;;;;;;54.67;36.90;;;13.50;99.90;;;;;;5075868;28;20515;-59
2022/09/24 05:46:57;;;;;;;55.25;37.45;;;13.50;99.90;;;;;;5076551;28;20358;-59
2022/09/24 05:49:23;;;;;;;54.53;37.35;;;13.20;99.90;;;;;;5074596;28;20480;-59
2022/09/24 05:51:51;;;;;;;56.50;36.75;;;13.50;99.90;;;;;;5080081;28;20044;-59
2022/09/24 05:54:17;;;;;;;55.08;37.38;;;13.90;99.90;;;;;;5076132;28;20135;-60
2022/09/24 05:56:44;;;;;;;67.72;39.83;;;;;;;;;;5075824;28;20048;-59
2022/09/24 05:59:10;;;;;;;60.88;38.22;;;;;;;;;;5076358;28;20040;-59
2022/09/24 06:01:36;;;;;;;61.15;38.53;;;13.00;99.90;;;;;;5075623;28;20042;-59
2022/09/24 06:04:07;;;;;;;61.08;39.20;;;13.40;99.90;;;;;;5075773;28;20028;-60
2022/09/24 06:06:33;;;;;;;59.05;38.95;;;13.70;99.90;;;;;;5076054;28;20047;-59
2022/09/24 06:08:58;;;;;;;63.88;39.58;;;13.50;99.90;;;;;;5075722;28;20501;-60
2022/09/24 06:11:24;;;;;;;61.90;38.28;;;13.40;99.90;;;;;;5075506;28;20093;-60
2022/09/24 06:13:51;;;;;;;60.75;38.53;;;13.90;99.90;;;;;;5075987;28;20078;-59
2022/09/24 06:16:20;;;;;;;59.67;38.40;;;;;;;;;;5074519;28;20074;-59
2022/09/24 06:18:55;;;;;;;56.72;37.50;;;13.50;99.90;;;;;;5075529;28;20040;-59
2022/09/24 06:21:21;;;;;;;55.35;36.70;;;;;;;;;;5075705;28;20081;-59
2022/09/24 06:23:48;;;;;;;61.85;38.60;;;13.60;99.90;;;;;;5075383;28;20051;-59
2022/09/24 06:26:14;;;;;;;59.35;37.50;;;;;;;;;;5075415;28;20056;-59
2022/09/24 06:28:41;;;;;;;61.38;39.05;;;13.50;99.90;;;;;;5075195;28;20033;-59
2022/09/24 06:31:10;;;;;;;62.08;39.72;;;13.70;99.90;;;;;;5075240;28;20033;-59
2022/09/24 06:33:39;;;;;;;63.80;39.17;;;;;;;;;;5075269;28;20043;-59
2022/09/24 06:36:07;;;;;;;61.40;38.25;;;13.50;99.90;;;;;;5074907;28;20044;-59
2022/09/24 06:38:34;;;;;;;59.03;37.67;;;13.80;99.90;;;;;;5075090;28;20115;-59
2022/09/24 06:41:05;;;;;;;66.28;39.53;;;13.40;99.90;;;;;;5075331;28;20072;-59
2022/09/24 06:43:32;;;;;;;63.10;39.60;;;14.10;99.90;;;;;;5074931;28;20123;-59
2022/09/24 06:46:00;;;;;;;64.78;38.92;;;14.00;99.90;;;;;;5074848;28;20551;-59
2022/09/24 06:48:29;;;;;;;64.18;38.38;;;13.60;99.90;;;;;;5075147;28;20373;-59
2022/09/24 06:50:56;;;;;;;64.53;38.85;;;14.00;99.90;;;;;;5074892;28;20044;-59
2022/09/24 06:53:22;;;;;;;66.88;38.63;;;14.30;99.90;;;;;;5062477;28;20041;-59
2022/09/24 06:55:48;;;;;;;63.45;38.20;;;;;;;;;;5069107;28;20557;-59
2022/09/24 06:58:18;;;;;;;66.07;38.40;;;13.70;99.90;;;;;;5073113;28;20042;-59
2022/09/24 07:01:00;;;;;;;62.83;38.30;;;12.70;99.90;;;;;;5073137;28;20104;-59
2022/09/24 07:03:28;;;;;;;68.70;39.20;;;13.80;99.90;;;;;;5073777;28;20051;-59
2022/09/24 07:06:00;;;;;;;54.80;36.28;;;13.80;99.90;;;;;;5073561;28;20048;-59
2022/09/24 07:08:28;;;;;;;63.05;38.33;;;14.50;99.90;;;;;;5061827;28;20048;-59
2022/09/24 07:10:55;;;;;;;61.38;37.95;;;13.60;99.90;;;;;;5073315;28;20504;-59
2022/09/24 07:13:21;;;;;;;57.58;36.60;;;14.00;99.90;;;;;;5073340;28;20678;-59
2022/09/24 07:15:48;;;;;;;58.63;37.67;;;13.80;99.90;;;;;;5072850;28;20052;-59
2022/09/24 07:18:15;;;;;;;58.88;37.15;;;13.90;99.90;;;;;;5073199;28;20117;-59
2022/09/24 07:20:41;;;;;;;57.33;37.35;;;13.80;99.90;;;;;;5072632;28;20052;-59
2022/09/24 07:23:11;;;;;;;59.17;37.80;;;14.50;99.90;;;;;;5073477;28;20063;-59
2022/09/24 07:25:38;;;;;;;54.30;36.28;;;14.10;99.90;;;;;;5073545;28;20049;-59
2022/09/24 07:28:10;;;;;;;58.08;37.72;;;14.00;99.90;;;;;;5072353;28;20048;-58
2022/09/24 07:30:36;;;;;;;56.35;36.22;;;14.00;99.90;;;;;;5073647;28;20064;-59
2022/09/24 07:33:03;;;;;;;55.42;36.83;;;13.80;99.90;;;;;;5071355;28;20044;-59
2022/09/24 07:35:30;;;;;;;69.43;38.05;;;;;;;;;;5073281;28;20408;-59
2022/09/24 07:38:02;;;;;;;63.45;37.60;;;13.80;99.90;;;;;;5071630;28;20084;-59
2022/09/24 07:40:31;;;;;;;56.15;36.47;;;14.60;99.90;;;;;;5070228;28;20036;-59
2022/09/24 07:42:58;;;;;;;56.95;37.55;;;14.20;99.90;;;;;;5072959;28;20087;-59
2022/09/24 07:45:30;;;;;;;59.55;38.00;;;14.00;99.90;;;;;;5072597;28;20120;-59
2022/09/24 07:48:04;;;;;;;58.47;38.20;;;14.10;99.90;;;;;;5072631;28;20048;-59
2022/09/24 07:50:33;;;;;;;64.35;38.75;;;14.00;99.90;;;;;;5073101;28;20055;-59
2022/09/24 07:52:59;;;;;;;63.80;39.40;;;14.00;99.90;;;;;;5071094;28;20446;-59
2022/09/24 07:55:25;;;;;;;67.10;40.15;;;14.00;99.90;;;;;;5072829;28;20036;-59
2022/09/24 07:57:54;;;;;;;68.53;40.15;;;14.10;99.90;;;;;;5072889;28;20400;-58
2022/09/24 08:00:24;;;;;;;62.03;38.75;;;14.10;99.90;;;;;;5071027;28;20443;-58
2022/09/24 08:02:52;;;;;;;65.95;40.50;;;14.00;99.90;;;;;;5072383;28;20075;-58
2022/09/24 08:05:18;;;;;;;79.50;43.30;;;13.80;99.90;;;;;;5072157;28;20433;-59
2022/09/24 08:07:57;;;;;;;67.07;39.88;;;14.00;99.90;;;;;;5069613;28;20120;-59
2022/09/24 08:10:27;;;;;;;72.15;40.78;;;13.80;99.90;;;;;;5052450;28;20520;-58
2022/09/24 08:12:57;;;;;;;73.78;41.65;;;14.10;99.90;;;;;;5052148;28;20115;-59
2022/09/24 08:15:25;;;;;;;71.18;40.55;;;14.00;99.90;;;;;;5052053;28;20041;-59
2022/09/24 08:17:51;;;;;;;61.75;38.45;;;13.90;99.90;;;;;;5051999;28;20053;-60
2022/09/24 08:20:24;;;;;;;66.57;39.25;;;14.00;99.90;;;;;;5052583;28;20041;-61
2022/09/24 08:23:02;;;;;;;67.40;40.03;;;14.10;99.90;;;;;;5051210;28;20111;-61
2022/09/24 08:25:30;;;;;;;79.57;41.67;;;14.00;99.90;;;;;;5050943;28;20049;-60
2022/09/24 08:28:03;;;;;;;77.47;41.83;;;14.00;99.90;;;;;;5052095;28;20037;-61
2022/09/24 08:30:29;;;;;;;75.25;41.58;;;14.20;99.90;;;;;;5052183;28;20098;-61
2022/09/24 08:33:05;;;;;;;59.08;37.45;;;13.80;99.90;;;;;;5051825;28;20045;-60
2022/09/24 08:35:33;;;;;;;72.93;40.50;;;14.10;99.90;;;;;;5051537;28;20048;-60
2022/09/24 08:38:02;;;;;;;64.40;38.22;;;13.80;99.90;;;;;;5056469;28;20353;-59
2022/09/24 08:40:42;;;;;;;65.75;39.28;;;14.10;99.90;;;;;;5072653;28;20056;-60
2022/09/24 08:43:42;;;;;;;67.93;39.35;;;14.00;99.90;;;;;;5071265;28;20499;-60
2022/09/24 08:49:06;;;;;;;66.32;38.38;;;13.80;99.90;;;;;;5071669;28;20447;-60
2022/09/24 08:51:50;;;;;;;60.25;36.47;;;14.20;99.90;;;;;;5071984;28;20423;-60
2022/09/24 08:54:18;;;;;;;59.28;35.67;;;13.90;99.90;;;;;;5071652;28;20060;-58
2022/09/24 08:56:50;;;;;;;57.45;34.88;;;13.90;99.90;;;;;;5072240;28;20063;-58
2022/09/24 08:59:36;;;;;;;52.05;32.80;;;14.30;99.90;;;;;;5072021;28;20123;-58
2022/09/24 09:02:02;;;;;;;53.50;33.50;;;14.10;99.90;;;;;;5070554;28;20437;-58
2022/09/24 09:04:59;;;;;;;49.25;32.40;;;14.30;99.90;;;;;;5071899;28;20045;-58
2022/09/24 09:07:42;;;;;;;49.20;31.48;;;14.30;99.90;;;;;;5071757;28;20054;-58
2022/09/24 09:10:15;;;;;;;45.88;30.27;;;14.40;99.90;;;;;;5051623;28;20060;-60
2022/09/24 09:12:50;;;;;;;44.28;28.48;;;14.00;99.90;;;;;;5052043;28;20094;-61
2022/09/24 09:15:34;;;;;;;41.10;27.77;;;13.80;99.90;;;;;;5051361;28;20056;-59
2022/09/24 09:18:30;;;;;;;41.28;25.85;;;14.40;99.90;;;;;;5051171;28;20400;-59
2022/09/24 09:21:25;;;;;;;36.05;24.55;;;14.30;99.90;;;;;;5051097;28;20120;-60
2022/09/24 09:23:53;;;;;;;38.63;25.38;;;14.50;99.90;;;;;;5051992;28;20037;-60
2022/09/24 09:26:31;;;;;;;36.83;24.63;;;14.40;99.90;;;;;;5051740;28;20049;-59
2022/09/24 09:29:00;;;;;;;40.90;25.85;;;14.60;99.90;;;;;;5033890;28;20029;-58
2022/09/24 09:32:03;;;;;;;36.70;24.23;;;14.50;99.90;;;;;;5050280;28;20081;-58
2022/09/24 09:35:13;;;;;;;37.53;24.35;;;14.70;99.90;;;;;;5051927;28;20127;-58
2022/09/24 09:37:43;;;;;;;27.70;20.30;;;14.80;99.90;;;;;;5053300;28;20241;-58
2022/09/24 09:40:34;;;;;;;28.45;19.48;;;14.90;99.90;;;;;;5070987;28;20048;-60
2022/09/24 09:43:11;;;;;;;24.95;17.02;;;15.00;99.90;;;;;;5070493;28;20049;-58
2022/09/24 09:45:56;;;;;;;26.50;16.88;;;15.20;99.90;;;;;;5071519;28;20056;-58
2022/09/24 09:48:25;;;;;;;27.52;15.75;;;15.20;99.90;;;;;;5071481;28;20044;-58
2022/09/24 09:50:58;;;;;;;26.08;14.25;;;15.20;99.90;;;;;;5071627;28;20515;-59
2022/09/24 09:53:30;;;;;;;22.67;15.10;;;14.90;99.90;;;;;;5073812;28;20044;-60
2022/09/24 09:56:03;;;;;;;20.63;11.65;;;15.20;99.90;;;;;;5074879;28;20530;-59
2022/09/24 09:58:39;;;;;;;18.88;7.93;;;15.00;99.90;;;;;;5075215;28;20044;-59
2022/09/24 10:01:14;;;;;;;18.30;6.28;;;15.00;99.90;;;;;;5074534;28;20501;-59
2022/09/24 10:03:42;;;;;;;18.23;6.53;;;15.10;99.90;;;;;;5074882;28;20111;-59
2022/09/24 10:06:11;;;;;;;20.33;6.10;;;15.00;99.90;;;;;;5074502;28;20083;-60
2022/09/24 10:08:37;;;;;;;17.25;5.78;;;;;;;;;;5065083;28;20043;-60
2022/09/24 10:11:06;;;;;;;22.02;6.05;;;15.10;99.90;;;;;;5054600;28;20404;-60
2022/09/24 10:13:32;;;;;;;19.67;5.95;;;15.10;99.90;;;;;;5054896;28;20435;-60
2022/09/24 10:16:05;;;;;;;19.30;5.28;;;15.20;99.90;;;;;;5054333;28;20049;-60
2022/09/24 10:18:40;;;;;;;18.95;4.57;;;15.10;99.90;;;;;;5054987;28;20110;-60
2022/09/24 10:21:10;;;;;;;19.67;4.82;;;15.10;99.90;;;;;;5054243;28;20041;-60
2022/09/24 10:23:47;;;;;;;13.13;4.25;;;15.20;99.90;;;;;;5054808;28;20457;-60
2022/09/24 10:26:13;;;;;;;22.63;4.50;;;15.10;99.90;;;;;;5054450;28;20420;-58
2022/09/24 10:31:31;;;;;;;18.38;4.38;;;15.20;99.90;;;;;;5054828;28;20346;-60
2022/09/24 10:33:59;;;;;;;23.13;5.20;;;15.10;99.90;;;;;;5052279;28;20049;-60
2022/09/24 10:36:31;;;;;;;14.35;3.70;;;15.30;99.90;;;;;;5054842;28;20057;-60
2022/09/24 10:39:13;;;;;;;18.00;4.20;;;15.40;99.90;;;;;;5053595;28;20084;-60
2022/09/24 10:41:50;;;;;;;18.10;4.00;;;15.60;99.90;;;;;;5054225;28;20041;-60
2022/09/24 10:44:17;;;;;;;21.70;4.00;;;15.70;99.90;;;;;;5053684;28;20493;-60
2022/09/24 10:47:06;;;;;;;18.20;3.85;;;15.80;99.90;;;;;;5054203;28;20052;-60
2022/09/24 10:50:01;;;;;;;27.27;3.95;;;15.90;99.90;;;;;;5054247;28;20105;-60
2022/09/24 10:52:50;;;;;;;18.88;3.63;;;15.90;99.90;;;;;;5053873;28;20115;-60
2022/09/24 10:55:46;;;;;;;21.05;3.65;;;15.70;99.90;;;;;;5051625;28;20052;-60
2022/09/24 10:58:39;;;;;;;21.23;3.70;;;15.50;99.90;;;;;;5051224;28;20045;-60
2022/09/24 11:01:41;;;;;;;13.98;2.95;;;15.40;99.90;;;;;;5051266;28;20575;-59
2022/09/24 11:04:32;;;;;;;12.93;3.15;;;15.30;99.90;;;;;;5049452;28;20053;-61
2022/09/24 11:07:35;;;;;;;16.33;3.78;;;16.00;99.90;;;;;;5051653;28;20048;-60
2022/09/24 11:10:18;;;;;;;13.63;3.25;;;15.50;99.90;;;;;;5031139;28;20065;-60
2022/09/24 11:12:54;;;;;;;17.63;3.58;;;15.70;99.90;;;;;;5031693;28;20052;-60
2022/09/24 11:15:20;;;;;;;14.32;3.13;;;16.00;99.90;;;;;;5031272;28;20038;-60
2022/09/24 11:18:04;;;;;;;11.38;3.20;;;15.90;99.90;;;;;;5031515;28;20103;-61
2022/09/24 11:21:01;;;;;;;14.82;3.47;;;15.90;99.90;;;;;;5031439;28;20127;-60
2022/09/24 11:23:38;;;;;;;13.85;3.10;;;16.20;99.90;;;;;;5013752;28;20045;-60
2022/09/24 11:26:20;;;;;;;14.88;3.38;;;15.60;99.90;;;;;;5030698;28;20436;-60
2022/09/24 11:29:27;;;;;;;15.23;3.30;;;16.10;99.90;;;;;;5031022;28;20041;-60
2022/09/24 11:32:05;;;;;;;13.43;3.30;;;15.60;99.90;;;;;;5038562;28;20049;-60
2022/09/24 11:35:02;;;;;;;15.63;3.60;;;15.70;99.90;;;;;;5053232;28;20087;-60
2022/09/24 11:37:49;;;;;;;13.80;2.90;;;15.80;99.90;;;;;;5053878;28;20079;-60
2022/09/24 11:40:34;;;;;;;13.00;2.75;;;15.70;99.90;;;;;;5072586;28;20511;-61
2022/09/24 11:43:36;;;;;;;16.38;3.00;;;15.80;99.90;;;;;;5072088;28;20047;-60
2022/09/24 11:46:22;;;;;;;13.60;3.20;;;15.60;99.90;;;;;;5072702;28;20040;-60
2022/09/24 11:48:49;;;;;;;11.90;2.60;;;;;;;;;;5073576;28;20036;-60
2022/09/24 11:51:28;;;;;;;13.75;2.85;;;15.60;99.90;;;;;;5073694;28;20488;-60
2022/09/24 11:54:21;;;;;;;9.88;2.63;;;15.50;99.90;;;;;;5072545;28;20048;-61
2022/09/24 11:56:50;;;;;;;10.18;2.60;;;14.90;99.90;;;;;;5073891;28;20048;-60
2022/09/24 11:59:37;;;;;;;11.73;2.72;;;15.60;99.90;;;;;;5073852;28;20044;-61
2022/09/24 12:02:23;;;;;;;10.88;2.33;;;15.50;99.90;;;;;;5073667;28;20111;-61
2022/09/24 12:05:11;;;;;;;13.52;2.92;;;15.50;99.90;;;;;;5073351;28;20076;-61
2022/09/24 12:07:43;;;;;;;14.73;3.03;;;15.60;99.90;;;;;;5073718;28;20114;-61
2022/09/24 12:10:37;;;;;;;16.85;3.20;;;15.60;99.90;;;;;;5073570;28;20365;-61
2022/09/24 12:13:14;;;;;;;12.75;2.67;;;15.40;99.90;;;;;;5073796;28;20040;-61
2022/09/24 12:15:55;;;;;;;13.55;2.67;;;15.30;99.90;;;;;;5073233;28;20048;-61
2022/09/24 12:18:35;;;;;;;13.10;2.70;;;15.60;99.90;;;;;;5073562;28;20072;-61
2022/09/24 12:21:16;;;;;;;12.00;2.42;;;15.40;99.90;;;;;;5073338;28;20119;-62
2022/09/24 12:23:46;;;;;;;11.70;2.83;;;15.40;99.90;;;;;;5073406;28;20496;-61
2022/09/24 12:26:15;;;;;;;9.77;2.28;;;15.90;99.90;;;;;;5055630;28;20482;-61
2022/09/24 12:35:14;;;;;;;9.88;2.20;;;15.60;99.90;;;;;;5073308;28;20055;-62
2022/09/24 12:37:42;;;;;;;12.88;2.38;;;15.60;99.90;;;;;;5073351;28;20049;-61
2022/09/24 12:40:11;;;;;;;9.18;2.33;;;15.70;99.90;;;;;;5073364;28;20392;-61
2022/09/24 12:42:51;;;;;;;13.95;4.28;;;15.70;99.90;;;;;;5073235;28;20115;-60
2022/09/24 12:45:21;;;;;;;9.77;2.50;;;15.70;99.90;;;;;;5071715;28;20048;-60
2022/09/24 12:48:13;;;;;;;8.82;2.10;;;15.70;99.90;;;;;;5072930;28;20032;-60
2022/09/24 12:50:39;;;;;;;7.43;2.10;;;15.70;99.90;;;;;;5072983;28;20102;-60
2022/09/24 12:53:23;;;;;;;10.30;2.20;;;15.70;99.90;;;;;;5073181;28;20044;-60
2022/09/24 12:55:50;;;;;;;8.65;2.35;;;15.50;99.90;;;;;;5072923;28;20414;-61
2022/09/24 12:58:36;;;;;;;8.88;3.28;;;16.00;99.90;;;;;;5072937;28;20041;-61
2022/09/24 13:01:10;;;;;;;12.60;2.90;;;16.10;99.90;;;;;;5073492;28;20455;-60
2022/09/24 13:03:38;;;;;;;15.30;7.00;;;15.70;99.90;;;;;;5071885;28;20123;-60
2022/09/24 13:06:23;;;;;;;13.55;6.22;;;15.80;99.90;;;;;;5072942;28;20158;-61
2022/09/24 13:08:49;;;;;;;7.82;2.40;;;15.80;99.90;;;;;;5071743;28;20029;-60
2022/09/24 13:11:35;;;;;;;10.23;2.90;;;16.20;99.90;;;;;;5072710;28;20040;-61
2022/09/24 13:14:14;;;;;;;14.18;3.05;;;16.00;99.90;;;;;;5072955;28;20032;-59
2022/09/24 13:16:45;;;;;;;7.18;2.10;;;16.00;99.90;;;;;;5072693;28;20056;-60
2022/09/24 13:19:32;;;;;;;9.88;2.50;;;15.80;99.90;;;;;;5072844;28;20040;-60
2022/09/24 13:22:00;;;;;;;12.88;2.90;;;15.10;99.90;;;;;;5072806;28;20370;-60